Latest Weather Observations for Witchcliffe

IDW60801

Issued at 5:04 pm WST Friday 26 May 2017 (issued every 30 minutes, with the page automatically refreshed every 10 minutes)

About weather observations | Map of weather stations | Latest weather observations for WA | Other Formats
Station Details ID: 009746 Name: WITCHCLIFFE Lat: -34.03 Lon: 115.10 Height: 80.0 m
Data from the previous 72 hours. | See also: Recent months at Witchcliffe
Date/Time
WST
Temp
°C
App
Temp
°C
Dew
Point
°C
Rel
Hum
%
Delta-T
°C
Wind Press
QNH
hPa
Press
MSL
hPa
Rain since
9am
mm
Dir  Spd
km/h
Gust
km/h
Spd
kts
Gust
kts
26/05:00pm 12.7 10.0 10.2 85 1.3 S 15 20 8 11 1022.2 1022.1 0.8
26/04:30pm 13.2 10.5 10.4 83 1.5 SSE 15 24 8 13 1022.1 1022.0 0.8
26/04:00pm 13.7 10.1 9.7 77 2.1 S 19 28 10 15 1022.0 1021.9 0.8
26/03:30pm 14.3 11.7 10.7 79 1.9 SSW 15 24 8 13 1021.7 1021.6 0.8
26/03:00pm 14.6 12.5 11.2 80 1.8 SSE 13 20 7 11 1021.4 1021.3 0.8
26/02:30pm 14.2 10.6 9.8 75 2.3 S 19 28 10 15 1021.3 1021.2 0.8
26/02:00pm 14.3 11.8 11.1 81 1.7 SW 15 24 8 13 1021.3 1021.2 0.8
26/01:30pm 14.7 12.9 12.0 84 1.5 SW 13 20 7 11 1021.3 1021.2 0.8
26/01:00pm 14.3 12.7 11.6 84 1.4 SSW 11 19 6 10 1021.3 1021.2 0.6
26/12:30pm 15.2 12.8 12.5 84 1.5 S 17 24 9 13 1021.4 1021.3 0.6
26/12:00pm 14.2 12.1 12.4 89 1.0 SW 15 26 8 14 1021.8 1021.7 0.6
26/11:30am 13.9 11.4 10.9 82 1.6 SSW 15 26 8 14 1022.2 1022.1 0.4
26/11:00am 14.1 11.9 10.9 81 1.7 S 13 22 7 12 1022.3 1022.2 0.4
26/10:30am 14.8 13.5 11.4 80 1.8 SW 9 11 5 6 1022.1 1022.0 0.4
26/10:00am 13.8 12.0 11.0 83 1.5 SSW 11 19 6 10 1022.1 1022.0 0.4
26/09:30am 14.7 12.0 10.5 76 2.2 S 15 20 8 11 1021.8 1021.7 0.0
26/09:00am 15.0 13.9 10.0 72 2.6 SSW 6 13 3 7 1021.4 1021.3 7.4
26/08:30am 14.1 13.5 8.9 71 2.6 S 2 15 1 8 1021.1 1021.0 7.4
26/08:00am 14.1 12.0 8.3 68 2.9 SW 9 19 5 10 1020.7 1020.6 7.4
26/07:30am 13.7 10.7 7.7 67 3.0 SSW 13 19 7 10 1020.4 1020.3 7.4
26/07:00am 13.7 12.2 9.0 73 2.4 SW 7 11 4 6 1020.1 1020.0 7.4
26/06:30am 13.5 12.0 9.2 75 2.2 SSW 7 13 4 7 1019.7 1019.7 7.4
26/06:00am 13.5 11.6 9.2 75 2.2 S 9 15 5 8 1019.4 1019.4 7.4
26/05:30am 13.6 11.5 8.4 71 2.6 SSW 9 17 5 9 1019.2 1019.2 7.4
26/05:00am 14.0 10.9 9.0 72 2.5 SW 15 32 8 17 1018.9 1018.9 7.4
26/04:30am 14.0 11.0 9.4 74 2.4 WSW 15 24 8 13 1018.9 1018.9 7.4
26/04:00am 14.2 11.9 7.5 64 3.3 SW 9 17 5 9 1018.6 1018.6 7.4
26/03:30am 14.5 10.1 7.5 63 3.5 SW 20 30 11 16 1018.6 1018.6 7.4
26/03:00am 14.4 11.0 7.7 64 3.3 SW 15 26 8 14 1018.5 1018.5 7.4
26/02:30am 14.2 10.9 8.2 67 3.0 SW 15 22 8 12 1018.4 1018.4 7.4
26/02:00am 14.9 11.5 9.3 69 2.9 SW 17 24 9 13 1018.1 1018.1 7.4
26/01:30am 15.0 12.3 10.2 73 2.5 SW 15 26 8 14 1017.7 1017.7 7.4
26/01:00am 15.1 12.8 10.3 73 2.5 SW 13 20 7 11 1017.8 1017.8 7.4
26/12:30am 15.3 12.1 10.1 71 2.7 WSW 17 33 9 18 1017.7 1017.7 7.4
26/12:00am 15.5 13.0 12.4 82 1.7 SW 17 30 9 16 1017.6 1017.6 7.4
 
Date/Time
WST
Temp
°C
App
Temp
°C
Dew
Point
°C
Rel
Hum
%
Delta-T
°C
Wind Press
QNH
hPa
Press
MSL
hPa
Rain since
9am
mm
Dir  Spd
km/h
Gust
km/h
Spd
kts
Gust
kts
25/11:30pm 15.4 13.5 14.3 93 0.6 SW 17 24 9 13 1017.5 1017.5 7.4
25/11:00pm 15.4 13.2 14.9 97 0.3 SW 20 37 11 20 1017.5 1017.5 7.4
25/10:30pm 16.3 15.4 15.8 97 0.3 W 15 32 8 17 1017.2 1017.2 7.0
25/10:00pm 15.9 15.7 15.6 98 0.2 W 11 17 6 9 1017.2 1017.2 6.8
25/09:30pm 15.9 13.3 14.9 94 0.6 WNW 22 35 12 19 1017.4 1017.4 5.8
25/09:00pm 16.2 14.9 14.9 92 0.8 WNW 15 22 8 12 1017.2 1017.2 4.6
25/08:30pm 16.1 14.8 14.8 92 0.7 WNW 15 24 8 13 1017.3 1017.3 4.0
25/08:00pm 16.0 15.5 15.0 94 0.6 NW 11 20 6 11 1017.5 1017.5 4.0
25/07:30pm 16.0 15.7 15.5 97 0.3 NW 11 20 6 11 1017.5 1017.5 3.8
25/07:00pm 16.0 15.5 15.0 94 0.6 NW 11 20 6 11 1017.5 1017.5 1.0
25/06:30pm 15.7 14.6 14.2 91 0.9 NW 13 19 7 10 1017.5 1017.5 0.8
25/06:00pm 15.5 14.3 13.9 90 0.9 NNW 13 20 7 11 1017.5 1017.5 0.8
25/05:30pm 17.2 14.1 11.7 70 3.0 NW 19 24 10 13 1017.5 1017.5 0.0
25/05:00pm 17.5 14.6 11.1 66 3.5 NW 17 24 9 13 1017.4 1017.4 0.0
25/04:30pm 17.4 14.4 10.5 64 3.7 NW 17 24 9 13 1017.4 1017.4 0.0
25/04:00pm 17.7 13.6 10.1 61 4.0 NW 22 33 12 18 1017.6 1017.6 0.0
25/03:30pm 18.3 14.2 10.2 59 4.3 NW 22 37 12 20 1017.4 1017.4 0.0
25/03:00pm 19.0 15.4 10.0 56 4.8 NNW 19 37 10 20 1017.7 1017.7 0.0
25/02:30pm 19.1 14.7 10.4 57 4.7 NNW 24 44 13 24 1017.7 1017.7 0.0
25/02:00pm 19.1 15.6 10.9 59 4.5 NW 20 33 11 18 1018.0 1018.0 0.0
25/01:30pm 19.0 14.4 11.1 60 4.3 NW 26 41 14 22 1018.2 1018.2 0.0
25/01:00pm 19.3 15.1 11.1 59 4.5 NW 24 41 13 22 1018.1 1018.1 0.0
25/12:30pm 19.6 15.5 11.6 60 4.4 NW 24 39 13 21 1018.5 1018.5 0.0
25/12:00pm 19.6 15.4 11.1 58 4.7 NNW 24 35 13 19 1019.0 1019.0 0.0
25/11:30am 19.6 16.6 12.6 64 3.9 NW 20 35 11 19 1019.4 1019.4 0.0
25/11:00am 18.9 14.5 11.7 63 4.0 NNW 26 39 14 21 1019.6 1019.6 0.0
25/10:30am 18.9 16.1 13.1 69 3.3 NW 20 32 11 17 1019.9 1019.9 0.0
25/10:00am 17.8 17.8 17.2 96 0.4 NNW 13 19 7 10 1020.2 1020.1 0.0
25/09:30am 15.6 14.5 15.4 99 0.1 N 15 19 8 10 1020.4 1020.3 0.0
25/09:00am 16.0 15.9 16.0 100 0.0 N 11 15 6 8 1020.3 1020.2 3.0
25/08:30am 14.3 13.6 14.3 100 0.0 N 11 15 6 8 1020.3 1020.2 3.0
25/08:00am 14.1 13.7 14.1 100 0.0 N 9 11 5 6 1020.1 1020.0 3.0
25/07:30am 13.7 13.7 13.7 100 0.0 NNW 6 9 3 5 1020.1 1020.0 3.0
25/07:00am 13.5 13.3 13.5 100 0.0 NNW 7 9 4 5 1019.8 1019.8 3.0
25/06:30am 13.4 12.4 13.4 100 0.0 N 11 17 6 9 1019.9 1019.9 3.0
25/06:00am 12.4 11.4 12.4 100 0.0 N 9 11 5 6 1019.7 1019.7 2.0
25/05:30am 12.4 11.1 12.4 100 0.0 N 11 13 6 7 1019.8 1019.8 2.0
25/05:00am 13.0 11.9 13.0 100 0.0 N 11 13 6 7 1019.6 1019.6 1.8
25/04:30am 12.7 11.8 12.7 100 0.0 NNW 9 11 5 6 1019.6 1019.6 1.8
25/04:00am 12.4 11.8 12.4 100 0.0 NNW 7 9 4 5 1019.6 1019.6 1.8
25/03:30am 11.9 10.8 11.9 100 0.0 N 9 11 5 6 1019.9 1019.9 1.8
25/03:00am 11.2 9.4 11.0 99 0.1 N 11 15 6 8 1019.9 1019.9 1.8
25/02:30am 11.5 11.9 11.3 99 0.1 CALM 0 0 0 0 1020.5 1020.4 1.8
25/02:00am 11.3 11.3 11.1 99 0.1 NNW 2 7 1 4 1020.5 1020.4 1.8
25/01:30am 10.5 9.5 10.3 99 0.1 N 6 7 3 4 1020.4 1020.3 1.8
25/01:00am 10.4 9.4 10.2 99 0.1 N 6 7 3 4 1020.5 1020.4 1.8
25/12:30am 10.4 9.2 10.2 99 0.1 N 7 9 4 5 1020.8 1020.7 1.8
25/12:00am 11.1 9.3 10.9 99 0.1 NNW 11 11 6 6 1021.1 1021.0 1.8
 
Date/Time
WST
Temp
°C
App
Temp
°C
Dew
Point
°C
Rel
Hum
%
Delta-T
°C
Wind Press
QNH
hPa
Press
MSL
hPa
Rain since
9am
mm
Dir  Spd
km/h
Gust
km/h
Spd
kts
Gust
kts
24/11:30pm 11.8 12.3 11.6 99 0.1 CALM 0 0 0 0 1021.1 1021.0 1.8
24/11:00pm 11.2 9.8 11.0 99 0.1 NNW 9 13 5 7 1021.4 1021.3 1.4
24/10:30pm 10.8 11.0 10.6 99 0.1 CALM 0 0 0 0 1021.4 1021.3 0.8
24/10:00pm 10.4 10.5 10.2 99 0.1 CALM 0 0 0 0 1021.5 1021.4 0.8
24/09:30pm 10.6 10.7 10.1 97 0.3 CALM 0 0 0 0 1021.6 1021.5 0.8
24/09:00pm 11.4 11.8 11.1 98 0.2 CALM 0 4 0 2 1021.7 1021.6 0.8
24/08:30pm 10.7 10.7 9.9 95 0.4 CALM 0 0 0 0 1021.6 1021.5 0.6
24/08:00pm 10.6 10.5 9.5 93 0.6 CALM 0 0 0 0 1021.5 1021.4 0.6
24/07:30pm 11.3 11.3 9.9 91 0.7 CALM 0 0 0 0 1021.3 1021.2 0.6
24/07:00pm 11.8 11.9 10.0 89 0.9 CALM 0 0 0 0 1021.3 1021.2 0.6
24/06:30pm 12.3 12.4 10.0 86 1.2 CALM 0 0 0 0 1020.8 1020.7 0.6
24/06:00pm 13.7 13.9 10.5 81 1.7 CALM 0 0 0 0 1020.8 1020.7 0.6
24/05:30pm 15.0 14.1 10.8 76 2.2 W 6 11 3 6 1020.6 1020.5 0.6
24/05:00pm 15.9 15.1 11.1 73 2.6 W 6 9 3 5 1020.5 1020.4 0.6
24/04:30pm 16.4 15.1 11.1 71 2.9 WSW 9 13 5 7 1020.4 1020.3 0.6
24/04:00pm 17.7 16.1 11.5 67 3.4 W 11 20 6 11 1020.3 1020.2 0.6
24/03:30pm 17.3 15.2 12.4 73 2.7 WSW 15 20 8 11 1020.1 1020.0 0.6
24/03:00pm 17.3 16.8 13.8 80 2.0 WSW 9 17 5 9 1019.9 1019.9 0.6
24/02:30pm 16.1 15.4 13.2 83 1.6 WSW 9 15 5 8 1020.1 1020.0 0.6
24/02:00pm 16.6 16.1 13.9 84 1.5 WNW 9 15 5 8 1019.9 1019.9 0.6
24/01:30pm 15.4 13.6 12.2 81 1.8 W 13 22 7 12 1020.3 1020.2 0.6
24/01:00pm 17.2 16.5 11.9 71 2.9 WSW 7 22 4 12 1020.2 1020.1 0.0
24/12:30pm 16.4 12.4 10.5 68 3.1 WNW 22 39 12 21 1020.7 1020.6 0.0
24/12:00pm 17.4 14.7 10.5 64 3.7 WNW 15 24 8 13 1020.7 1020.6 0.0
24/11:30am 18.0 15.6 10.1 60 4.2 W 13 20 7 11 1021.0 1020.9 0.0
24/11:00am 18.2 15.6 10.8 62 4.0 WNW 15 28 8 15 1021.2 1021.1 0.0
24/10:30am 17.4 16.0 10.8 65 3.6 NW 9 15 5 8 1021.4 1021.3 0.0
24/10:00am 16.6 14.7 10.5 67 3.2 WNW 11 15 6 8 1021.4 1021.3 0.0
24/09:30am 16.7 15.4 11.2 70 3.0 W 9 15 5 8 1021.3 1021.2 0.0
24/09:00am 15.7 14.6 10.5 71 2.7 W 7 13 4 7 1021.4 1021.3 6.4
24/08:30am 15.2 13.3 10.6 74 2.4 W 11 19 6 10 1021.4 1021.3 6.4
24/08:00am 14.1 12.9 9.7 75 2.3 WNW 6 9 3 5 1021.1 1021.0 6.4
24/07:30am 14.6 12.5 9.8 73 2.5 WSW 11 17 6 9 1020.9 1020.8 6.4
24/07:00am 14.8 13.7 9.8 72 2.6 WSW 6 9 3 5 1020.6 1020.5 6.4
24/06:30am 14.9 13.9 10.3 74 2.4 W 6 13 3 7 1020.4 1020.3 6.4
24/06:00am 14.5 13.2 10.1 75 2.3 WSW 7 9 4 5 1020.2 1020.1 6.4
24/05:30am 15.0 12.3 10.4 74 2.4 WSW 15 24 8 13 1020.1 1020.0 6.4
24/05:00am 15.1 13.3 8.1 63 3.5 W 7 11 4 6 1019.7 1019.7 6.4
24/04:30am 15.5 13.4 8.3 62 3.6 W 9 17 5 9 1019.7 1019.7 6.4
24/04:00am 15.4 13.6 9.3 67 3.1 W 9 17 5 9 1019.6 1019.6 6.4
24/03:30am 15.3 12.9 8.5 64 3.5 W 11 17 6 9 1019.8 1019.8 6.4
24/03:00am 12.8 12.5 10.2 84 1.3 NNW 2 7 1 4 1019.8 1019.8 6.4
24/02:30am 13.1 13.1 9.7 80 1.7 CALM 0 0 0 0 1019.8 1019.8 6.4
24/02:00am 14.0 12.8 9.4 74 2.4 NW 6 7 3 4 1019.9 1019.9 6.4
24/01:30am 15.0 13.6 9.4 69 2.9 WNW 7 11 4 6 1020.1 1020.0 6.4
24/01:00am 15.0 13.8 9.4 69 2.9 W 6 13 3 7 1020.2 1020.1 6.4
24/12:30am 15.3 13.7 10.1 71 2.7 W 9 13 5 7 1020.2 1020.1 6.4
24/12:00am 15.4 13.4 10.2 71 2.7 W 11 19 6 10 1020.2 1020.1 6.4
 
Date/Time
WST
Temp
°C
App
Temp
°C
Dew
Point
°C
Rel
Hum
%
Delta-T
°C
Wind Press
QNH
hPa
Press
MSL
hPa
Rain since
9am
mm
Dir  Spd
km/h
Gust
km/h
Spd
kts
Gust
kts
23/11:30pm 15.3 13.9 10.9 75 2.3 W 9 15 5 8 1020.4 1020.3 6.4
23/11:00pm 15.3 14.2 11.9 80 1.8 W 9 19 5 10 1020.4 1020.3 6.4
23/10:30pm 15.2 14.6 13.6 90 0.9 W 9 15 5 8 1020.6 1020.5 6.4
23/10:00pm 15.0 15.2 14.8 99 0.1 W 7 11 4 6 1020.8 1020.7 6.4
23/09:30pm 14.7 15.0 14.5 99 0.1 W 6 11 3 6 1020.7 1020.6 6.4
23/09:00pm 15.1 16.3 14.9 99 0.1 NW 2 9 1 5 1020.8 1020.7 6.4
23/08:30pm 15.1 14.6 14.9 99 0.1 WNW 11 24 6 13 1020.8 1020.7 6.2
23/08:00pm 15.0 15.4 14.8 99 0.1 W 6 11 3 6 1020.7 1020.6 4.6
23/07:30pm 15.0 14.5 14.8 99 0.1 W 11 17 6 9 1020.7 1020.6 4.2
23/07:00pm 15.2 15.5 15.0 99 0.1 W 7 13 4 7 1020.7 1020.6 3.4
23/06:30pm 15.3 16.6 15.1 99 0.1 W 2 11 1 6 1020.7 1020.6 3.2
23/06:00pm 15.0 16.2 14.8 99 0.1 W 2 9 1 5 1020.4 1020.3 2.4
23/05:30pm 15.5 16.8 15.2 98 0.2 WNW 2 9 1 5 1020.4 1020.3 2.0

Other Formats:

Comma delimited format used in spreadsheet applications
http://www.bom.gov.au/fwo/IDW60801/IDW60801.95641.axf

JavaScript Object Notation format (JSON) in row-major order
http://www.bom.gov.au/fwo/IDW60801/IDW60801.95641.json